createdAt,value
2022-09-14T00:01:30.701Z,24.44
2022-09-14T00:04:07.704Z,24.39
2022-09-14T00:06:35.682Z,24.37
2022-09-14T00:09:06.954Z,24.35
2022-09-14T00:11:36.112Z,24.31
2022-09-14T00:14:05.096Z,24.28
2022-09-14T00:16:35.177Z,24.27
2022-09-14T00:19:06.443Z,24.25
2022-09-14T00:21:38.737Z,24.24
2022-09-14T00:24:07.455Z,24.24
2022-09-14T00:26:35.322Z,24.26
2022-09-14T00:29:05.157Z,24.24
2022-09-14T00:31:35.198Z,24.22
2022-09-14T00:34:03.461Z,24.20
2022-09-14T00:36:31.580Z,24.23
2022-09-14T00:39:00.914Z,24.24
2022-09-14T00:41:32.576Z,24.26
2022-09-14T00:44:01.980Z,24.24
2022-09-14T00:46:31.829Z,24.23
2022-09-14T00:49:04.385Z,24.25
2022-09-14T00:51:33.975Z,24.25
2022-09-14T00:54:07.032Z,24.27
2022-09-14T00:56:35.026Z,24.26
2022-09-14T00:59:09.709Z,24.26
2022-09-14T01:01:37.274Z,24.26
2022-09-14T01:04:04.754Z,24.27
2022-09-14T01:06:47.765Z,24.27
2022-09-14T01:09:44.245Z,24.25
2022-09-14T01:12:46.505Z,24.25
2022-09-14T01:15:17.960Z,24.21
2022-09-14T01:17:45.089Z,24.20
2022-09-14T01:20:29.729Z,24.18
2022-09-14T01:23:30.728Z,24.14
2022-09-14T01:26:36.032Z,24.10
2022-09-14T01:29:27.671Z,24.08
2022-09-14T01:32:03.396Z,24.06
2022-09-14T01:34:57.239Z,24.06
2022-09-14T01:37:44.520Z,24.05
2022-09-14T01:40:25.088Z,24.02
2022-09-14T01:42:58.751Z,23.99
2022-09-14T01:45:27.637Z,23.98
2022-09-14T01:48:00.353Z,23.97
2022-09-14T01:50:35.743Z,23.97
2022-09-14T01:53:07.482Z,23.95
2022-09-14T01:55:44.382Z,23.92
2022-09-14T01:58:24.088Z,23.89
2022-09-14T02:00:54.213Z,23.86
2022-09-14T02:03:37.496Z,23.82
2022-09-14T02:06:20.769Z,23.79
2022-09-14T02:08:48.181Z,23.75
2022-09-14T02:11:15.435Z,23.71
2022-09-14T02:13:42.847Z,23.70
2022-09-14T02:16:10.426Z,23.67
2022-09-14T02:18:39.105Z,23.62
2022-09-14T02:21:16.417Z,23.59
2022-09-14T02:23:43.812Z,23.58
2022-09-14T02:26:11.809Z,23.59
2022-09-14T02:28:39.171Z,23.61
2022-09-14T02:31:34.272Z,23.62
2022-09-14T02:34:07.201Z,23.61
2022-09-14T02:36:40.300Z,23.60
2022-09-14T02:39:34.237Z,23.62
2022-09-14T02:42:29.824Z,23.62
2022-09-14T02:45:18.372Z,23.62
2022-09-14T02:48:20.407Z,23.61
2022-09-14T02:51:16.223Z,23.61
2022-09-14T02:53:51.824Z,23.62
2022-09-14T02:56:20.558Z,23.61
2022-09-14T02:58:48.101Z,23.58
2022-09-14T03:01:20.421Z,23.58
2022-09-14T03:03:47.655Z,23.58
2022-09-14T03:06:15.413Z,23.56
2022-09-14T03:08:43.893Z,23.54
2022-09-14T03:11:11.284Z,23.54
2022-09-14T03:13:39.170Z,23.54
2022-09-14T03:16:15.198Z,23.52
2022-09-14T03:18:43.037Z,23.51
2022-09-14T03:21:12.862Z,23.48
2022-09-14T03:23:45.860Z,23.45
2022-09-14T03:26:17.093Z,23.43
2022-09-14T03:28:45.445Z,23.40
2022-09-14T03:31:13.427Z,23.36
2022-09-14T03:33:40.948Z,23.34
2022-09-14T03:36:17.098Z,23.30
2022-09-14T03:38:49.554Z,23.30
2022-09-14T03:41:17.376Z,23.29
2022-09-14T03:43:45.282Z,23.29
2022-09-14T03:46:17.813Z,23.28
2022-09-14T03:48:45.146Z,23.27
2022-09-14T03:51:14.282Z,23.25
2022-09-14T03:53:43.230Z,23.23
2022-09-14T03:56:15.443Z,23.18
2022-09-14T03:58:43.844Z,23.17
2022-09-14T04:01:16.242Z,23.13
2022-09-14T04:03:44.099Z,23.10
2022-09-14T04:06:11.779Z,23.12
2022-09-14T04:08:41.154Z,23.11
2022-09-14T04:11:16.759Z,23.13
2022-09-14T04:13:44.597Z,23.12
2022-09-14T04:16:12.114Z,23.09
2022-09-14T04:18:39.431Z,23.07
2022-09-14T04:21:10.656Z,23.06
2022-09-14T04:24:02.988Z,23.03
2022-09-14T04:26:28.580Z,23.00
2022-09-14T04:28:56.821Z,23.01
2022-09-14T04:31:24.681Z,23.02
2022-09-14T04:33:53.407Z,23.03
2022-09-14T04:36:23.152Z,23.03
2022-09-14T04:38:54.051Z,23.01
2022-09-14T04:41:22.352Z,22.99
2022-09-14T04:43:51.020Z,23.05
2022-09-14T04:46:23.796Z,23.22
2022-09-14T04:48:50.996Z,23.51
2022-09-14T04:51:25.367Z,23.93
2022-09-14T04:53:55.274Z,24.42
2022-09-14T04:56:24.262Z,24.89
2022-09-14T04:58:56.946Z,25.56
2022-09-14T05:01:29.363Z,26.24
2022-09-14T05:03:57.613Z,27.04
2022-09-14T05:06:29.934Z,27.87
2022-09-14T05:08:58.017Z,28.68
2022-09-14T05:11:28.068Z,29.32
2022-09-14T05:13:57.804Z,29.99
2022-09-14T05:16:36.850Z,30.82
2022-09-14T05:19:11.004Z,31.32
2022-09-14T05:21:38.249Z,31.46
2022-09-14T05:24:12.683Z,30.91
2022-09-14T05:26:40.005Z,30.90
2022-09-14T05:29:07.252Z,31.73
2022-09-14T05:31:34.527Z,32.67
2022-09-14T05:34:01.669Z,33.35
2022-09-14T05:36:28.943Z,33.75
2022-09-14T05:38:58.092Z,34.23
2022-09-14T05:41:25.195Z,34.36
2022-09-14T05:43:52.409Z,33.84
2022-09-14T05:46:22.712Z,32.98
2022-09-14T05:48:51.954Z,32.52
2022-09-14T05:51:23.153Z,33.51
2022-09-14T05:53:52.198Z,34.40
2022-09-14T05:56:21.133Z,34.81
2022-09-14T05:58:49.134Z,35.15
2022-09-14T06:01:25.386Z,34.92
2022-09-14T06:03:57.732Z,34.47
2022-09-14T06:06:25.329Z,34.12
2022-09-14T06:08:54.353Z,34.12
2022-09-14T06:11:24.753Z,34.19
2022-09-14T06:13:52.151Z,34.14
2022-09-14T06:16:21.276Z,33.69
2022-09-14T06:18:49.761Z,33.73
2022-09-14T06:21:19.545Z,33.63
2022-09-14T06:23:48.389Z,31.63
2022-09-14T06:26:16.863Z,32.51
2022-09-14T06:28:44.200Z,33.34
2022-09-14T06:31:15.871Z,33.50
2022-09-14T06:33:46.784Z,32.69
2022-09-14T06:36:19.799Z,33.63
2022-09-14T06:38:50.078Z,34.24
2022-09-14T06:41:20.578Z,34.13
2022-09-14T06:43:49.136Z,34.13
2022-09-14T06:46:22.089Z,33.97
2022-09-14T06:48:56.745Z,34.10
2022-09-14T06:51:32.441Z,34.57
2022-09-14T06:54:01.181Z,34.74
2022-09-14T06:56:31.119Z,33.72
2022-09-14T06:58:59.448Z,34.52
2022-09-14T07:01:27.845Z,35.31
2022-09-14T07:03:55.505Z,35.80
2022-09-14T07:06:24.601Z,35.84
2022-09-14T07:08:52.700Z,35.67
2022-09-14T07:11:22.167Z,35.94
2022-09-14T07:13:49.883Z,35.79
2022-09-14T07:16:17.170Z,35.56
2022-09-14T07:18:44.745Z,34.78
2022-09-14T07:21:14.734Z,34.22
2022-09-14T07:23:43.932Z,34.61
2022-09-14T07:26:15.093Z,33.96
2022-09-14T07:28:44.560Z,34.49
2022-09-14T07:31:33.005Z,34.69
2022-09-14T07:34:03.065Z,35.13
2022-09-14T07:36:34.819Z,35.30
2022-09-14T07:39:07.103Z,35.39
2022-09-14T07:41:34.869Z,33.93
2022-09-14T07:44:04.100Z,34.40
2022-09-14T07:46:37.399Z,34.69
2022-09-14T07:49:05.152Z,34.36
2022-09-14T07:51:34.961Z,34.11
2022-09-14T07:54:02.186Z,34.12
2022-09-14T07:59:36.035Z,34.01
2022-09-14T08:02:06.278Z,34.23
2022-09-14T08:04:36.279Z,34.65
2022-09-14T08:07:03.855Z,34.55
2022-09-14T08:09:31.265Z,34.26
2022-09-14T08:11:58.344Z,33.87
2022-09-14T08:14:25.886Z,32.87
2022-09-14T08:16:53.300Z,31.97
2022-09-14T08:19:23.626Z,31.84
2022-09-14T08:21:51.434Z,31.50
2022-09-14T08:24:21.347Z,31.52
2022-09-14T08:26:49.203Z,31.18
2022-09-14T08:29:18.102Z,30.93
2022-09-14T08:31:46.204Z,30.99
2022-09-14T08:34:14.393Z,30.66
2022-09-14T08:36:42.561Z,30.54
2022-09-14T08:39:12.214Z,30.26
2022-09-14T08:41:58.998Z,30.34
2022-09-14T08:44:28.770Z,30.46
2022-09-14T08:47:06.330Z,30.57
2022-09-14T08:49:39.697Z,30.67
2022-09-14T08:52:30.020Z,30.75
2022-09-14T08:55:00.181Z,30.71
2022-09-14T08:57:56.278Z,30.90
2022-09-14T09:00:32.131Z,30.90
2022-09-14T09:03:26.930Z,31.07
2022-09-14T09:06:06.688Z,31.16
2022-09-14T09:09:05.649Z,31.24
2022-09-14T09:11:46.823Z,31.41
2022-09-14T09:14:26.467Z,31.59
2022-09-14T09:16:56.985Z,31.71
2022-09-14T09:19:39.480Z,31.76
2022-09-14T09:22:14.825Z,31.67
2022-09-14T09:24:53.763Z,31.51
2022-09-14T09:27:21.557Z,31.58
2022-09-14T09:29:48.658Z,31.65
2022-09-14T09:32:22.786Z,31.93
2022-09-14T09:35:20.170Z,32.02
2022-09-14T09:38:24.968Z,31.98
2022-09-14T09:41:00.097Z,31.85
2022-09-14T09:43:45.728Z,31.52
2022-09-14T09:46:15.120Z,31.73
2022-09-14T09:48:45.201Z,32.05
2022-09-14T09:51:19.835Z,32.21
2022-09-14T09:53:56.176Z,32.24
2022-09-14T09:56:26.582Z,32.26
2022-09-14T09:58:53.961Z,32.24
2022-09-14T10:01:30.980Z,32.19
2022-09-14T10:04:22.579Z,31.96
2022-09-14T10:06:52.038Z,32.35
2022-09-14T10:09:29.485Z,32.54
2022-09-14T10:12:04.909Z,32.79
2022-09-14T10:14:34.725Z,32.81
2022-09-14T10:17:06.533Z,32.73
2022-09-14T10:19:34.385Z,32.90
2022-09-14T10:22:21.845Z,32.71
2022-09-14T10:25:05.459Z,32.46
2022-09-14T10:27:42.327Z,32.68
2022-09-14T10:30:22.866Z,32.88
2022-09-14T10:33:20.539Z,33.10
2022-09-14T10:36:09.714Z,33.17
2022-09-14T10:39:07.359Z,33.15
2022-09-14T10:42:08.346Z,33.35
2022-09-14T10:45:01.849Z,33.47
2022-09-14T10:47:42.896Z,33.49
2022-09-14T10:50:28.418Z,33.57
2022-09-14T10:53:15.337Z,33.52
2022-09-14T10:56:04.053Z,33.35
2022-09-14T10:58:55.368Z,33.06
2022-09-14T11:01:32.756Z,32.53
2022-09-14T11:04:11.862Z,32.17
2022-09-14T11:07:13.441Z,32.12
2022-09-14T11:10:08.349Z,31.62
2022-09-14T11:12:44.592Z,31.25
2022-09-14T11:15:26.598Z,30.81
2022-09-14T11:17:56.479Z,30.50
2022-09-14T11:20:48.984Z,30.33
2022-09-14T11:23:28.025Z,30.01
2022-09-14T11:25:57.684Z,29.80
2022-09-14T11:28:34.630Z,29.61
2022-09-14T11:31:12.524Z,29.35
2022-09-14T11:34:17.306Z,29.01
2022-09-14T11:36:48.850Z,28.96
2022-09-14T11:39:21.294Z,28.56
2022-09-14T11:42:26.913Z,28.68
2022-09-14T11:45:05.953Z,28.90
2022-09-14T11:47:40.088Z,28.78
2022-09-14T11:50:28.150Z,28.82
2022-09-14T11:53:10.302Z,28.88
2022-09-14T11:55:41.950Z,28.57
2022-09-14T11:58:18.222Z,28.50
2022-09-14T12:01:07.590Z,28.78
2022-09-14T12:03:59.942Z,28.87
2022-09-14T12:06:30.259Z,28.87
2022-09-14T12:09:22.827Z,28.69
2022-09-14T12:11:55.364Z,28.95
2022-09-14T12:14:28.852Z,29.13
2022-09-14T12:20:20.999Z,28.83
2022-09-14T12:22:50.373Z,28.75
2022-09-14T12:25:22.920Z,28.98
2022-09-14T12:27:50.505Z,29.21
2022-09-14T12:30:42.153Z,29.05
2022-09-14T12:33:38.691Z,29.03
2022-09-14T12:36:21.633Z,29.06
2022-09-14T12:38:52.423Z,29.32
2022-09-14T12:41:19.535Z,29.36
2022-09-14T12:43:47.529Z,29.37
2022-09-14T12:46:21.027Z,29.34
2022-09-14T12:48:48.418Z,29.40
2022-09-14T12:51:45.421Z,29.32
2022-09-14T12:54:51.508Z,29.48
2022-09-14T12:57:31.659Z,29.30
2022-09-14T13:00:08.813Z,29.48
2022-09-14T13:02:42.321Z,29.49
2022-09-14T13:05:23.893Z,29.34
2022-09-14T13:07:52.330Z,29.36
2022-09-14T13:10:36.473Z,29.54
2022-09-14T13:13:14.728Z,29.10
2022-09-14T13:16:00.743Z,29.23
2022-09-14T13:18:30.060Z,29.13
2022-09-14T13:21:00.072Z,29.12
2022-09-14T13:23:41.293Z,28.87
2022-09-14T13:26:17.017Z,28.72
2022-09-14T13:28:47.528Z,28.68
2022-09-14T13:31:19.190Z,28.56
2022-09-14T13:33:49.199Z,28.44
2022-09-14T13:36:20.483Z,28.56
2022-09-14T13:38:48.717Z,28.54
2022-09-14T13:41:18.527Z,28.51
2022-09-14T13:43:50.016Z,28.42
2022-09-14T13:46:20.378Z,28.47
2022-09-14T13:48:49.276Z,28.46
2022-09-14T13:51:17.706Z,28.48
2022-09-14T13:53:50.529Z,28.54
2022-09-14T13:56:32.783Z,28.66
2022-09-14T13:59:21.760Z,28.62
2022-09-14T14:02:03.384Z,28.50
2022-09-14T14:04:38.893Z,28.49
2022-09-14T14:07:14.104Z,28.46
2022-09-14T14:09:52.737Z,28.38
2022-09-14T14:12:28.445Z,28.42
2022-09-14T14:14:59.994Z,28.47
2022-09-14T14:17:29.898Z,28.38
2022-09-14T14:20:21.243Z,28.62
2022-09-14T14:23:00.294Z,28.62
2022-09-14T14:25:43.330Z,28.60
2022-09-14T14:28:21.021Z,28.57
2022-09-14T14:30:48.370Z,28.49
2022-09-14T14:33:20.893Z,28.54
2022-09-14T14:35:49.593Z,28.58
2022-09-14T14:38:16.741Z,28.47
2022-09-14T14:40:45.913Z,28.38
2022-09-14T14:50:26.807Z,28.62
2022-09-14T14:52:54.749Z,28.53
2022-09-14T14:55:23.992Z,28.61
2022-09-14T14:57:52.141Z,28.70
2022-09-14T15:00:22.076Z,28.69
2022-09-14T15:02:50.192Z,28.78
2022-09-14T15:05:18.033Z,28.83
2022-09-14T15:07:46.369Z,28.83
2022-09-14T15:10:16.934Z,28.65
2022-09-14T15:12:45.192Z,28.75
2022-09-14T15:15:19.484Z,28.73
2022-09-14T15:17:47.945Z,28.74
2022-09-14T15:20:15.658Z,28.78
2022-09-14T15:22:43.062Z,28.72
2022-09-14T15:25:11.545Z,28.69
2022-09-14T15:27:39.489Z,28.62
2022-09-14T15:30:08.925Z,28.59
2022-09-14T15:32:36.461Z,28.58
2022-09-14T15:35:05.062Z,28.62
2022-09-14T15:37:32.283Z,28.64
2022-09-14T15:39:59.405Z,28.69
2022-09-14T15:42:27.391Z,28.73
2022-09-14T15:44:54.440Z,28.71
2022-09-14T15:47:21.688Z,28.72
2022-09-14T15:49:52.874Z,28.69
2022-09-14T15:52:20.201Z,28.70
2022-09-14T15:54:48.147Z,28.71
2022-09-14T15:57:15.906Z,28.74
2022-09-14T15:59:42.994Z,28.72
2022-09-14T16:02:12.568Z,28.74
2022-09-14T16:04:42.980Z,28.78
2022-09-14T16:07:10.185Z,28.68
2022-09-14T16:09:41.740Z,28.64
2022-09-14T16:12:11.035Z,28.57
2022-09-14T16:14:38.555Z,28.53
2022-09-14T16:17:19.815Z,28.42
2022-09-14T16:19:49.405Z,28.40
2022-09-14T16:22:16.796Z,28.41
2022-09-14T16:24:43.950Z,28.36
2022-09-14T16:27:11.148Z,28.27
2022-09-14T16:29:39.524Z,28.27
2022-09-14T16:32:07.862Z,28.29
2022-09-14T16:34:36.730Z,28.28
2022-09-14T16:37:04.521Z,28.17
2022-09-14T16:39:32.054Z,28.14
2022-09-14T16:42:00.224Z,28.13
2022-09-14T16:44:28.763Z,28.10
2022-09-14T16:46:58.178Z,28.02
2022-09-14T16:49:27.830Z,28.01
2022-09-14T16:51:56.877Z,27.90
2022-09-14T16:54:25.946Z,27.80
2022-09-14T16:56:57.291Z,27.77
2022-09-14T16:59:25.086Z,27.73
2022-09-14T17:01:54.938Z,27.70
2022-09-14T17:04:23.868Z,27.62
2022-09-14T17:06:52.107Z,27.60
2022-09-14T17:09:27.490Z,27.55
2022-09-14T17:11:56.251Z,27.52
2022-09-14T17:14:27.073Z,27.50
2022-09-14T17:16:54.634Z,27.48
2022-09-14T17:19:22.311Z,27.45
2022-09-14T17:21:49.733Z,27.43
2022-09-14T17:24:19.036Z,27.39
2022-09-14T17:26:47.166Z,27.38
2022-09-14T17:29:15.427Z,27.36
2022-09-14T17:31:44.820Z,27.37
2022-09-14T17:34:14.282Z,27.36
2022-09-14T17:36:41.809Z,27.39
2022-09-14T17:39:12.234Z,27.39
2022-09-14T17:41:41.250Z,27.36
2022-09-14T17:44:11.386Z,27.36
2022-09-14T17:46:48.304Z,27.34
2022-09-14T17:49:19.565Z,27.34
2022-09-14T17:51:46.616Z,27.32
2022-09-14T17:54:13.904Z,27.31
2022-09-14T17:56:41.194Z,27.30
2022-09-14T17:59:14.328Z,27.29
2022-09-14T18:01:41.575Z,27.28
2022-09-14T18:04:13.221Z,27.28
2022-09-14T18:06:43.184Z,27.29
2022-09-14T18:09:14.378Z,27.27
2022-09-14T18:11:42.696Z,27.24
2022-09-14T18:14:12.960Z,27.21
2022-09-14T18:16:40.957Z,27.23
2022-09-14T18:19:08.791Z,27.24
2022-09-14T18:21:36.326Z,27.20
2022-09-14T18:24:03.997Z,27.19
2022-09-14T18:26:31.197Z,27.17
2022-09-14T18:28:58.884Z,27.16
2022-09-14T18:31:26.951Z,27.11
2022-09-14T18:33:59.255Z,27.11
2022-09-14T18:36:29.534Z,27.08
2022-09-14T18:38:58.695Z,27.05
2022-09-14T18:41:29.153Z,27.08
2022-09-14T18:43:56.238Z,27.13
2022-09-14T18:46:27.838Z,27.07
2022-09-14T18:49:00.202Z,27.02
2022-09-14T18:51:29.006Z,26.95
2022-09-14T18:53:58.363Z,26.89
2022-09-14T18:56:26.035Z,26.85
2022-09-14T18:58:53.099Z,26.80
2022-09-14T19:01:20.574Z,26.80
2022-09-14T19:03:49.033Z,26.78
2022-09-14T19:06:18.763Z,26.78
2022-09-14T19:08:47.060Z,26.78
2022-09-14T19:11:16.863Z,26.81
2022-09-14T19:13:45.691Z,26.80
2022-09-14T19:16:15.856Z,26.78
2022-09-14T19:18:44.537Z,26.79
2022-09-14T19:21:23.360Z,26.80
2022-09-14T19:23:59.091Z,26.86
2022-09-14T19:26:28.422Z,26.90
2022-09-14T19:28:57.002Z,26.86
2022-09-14T19:31:25.630Z,26.83
2022-09-14T19:33:53.438Z,26.77
2022-09-14T19:36:24.802Z,26.71
2022-09-14T19:38:53.050Z,26.71
2022-09-14T19:41:21.892Z,26.70
2022-09-14T19:43:49.572Z,26.66
2022-09-14T19:46:20.856Z,26.63
2022-09-14T19:48:50.606Z,26.56
2022-09-14T19:51:25.519Z,26.51
2022-09-14T19:53:54.852Z,26.57
2022-09-14T19:56:28.074Z,26.69
2022-09-14T19:58:59.044Z,26.75
2022-09-14T20:01:28.028Z,26.86
2022-09-14T20:03:55.802Z,26.89
2022-09-14T20:06:26.448Z,26.92
2022-09-14T20:08:57.482Z,26.91
2022-09-14T20:11:31.078Z,26.95
2022-09-14T20:14:00.399Z,26.95
2022-09-14T20:16:39.358Z,26.99
2022-09-14T20:19:14.793Z,26.96
2022-09-14T20:21:43.723Z,26.96
2022-09-14T20:24:18.982Z,26.97
2022-09-14T20:26:51.264Z,26.97
2022-09-14T20:29:20.241Z,26.93
2022-09-14T20:31:47.933Z,26.88
2022-09-14T20:34:18.535Z,26.86
2022-09-14T20:36:46.680Z,26.83
2022-09-14T20:39:15.289Z,26.80
2022-09-14T20:41:43.158Z,26.76
2022-09-14T20:44:10.828Z,26.73
2022-09-14T20:46:42.175Z,26.70
2022-09-14T20:49:14.556Z,26.71
2022-09-14T20:51:44.432Z,26.65
2022-09-14T20:54:15.297Z,26.62
2022-09-14T20:56:43.644Z,26.59
2022-09-14T20:59:16.963Z,26.55
2022-09-14T21:01:46.423Z,26.56
2022-09-14T21:04:16.244Z,26.49
2022-09-14T21:06:46.463Z,26.44
2022-09-14T21:09:15.387Z,26.43
2022-09-14T21:11:45.873Z,26.39
2022-09-14T21:14:18.153Z,26.37
2022-09-14T21:16:47.143Z,26.35
2022-09-14T21:19:23.283Z,26.32
2022-09-14T21:21:50.969Z,26.28
2022-09-14T21:24:19.665Z,26.24
2022-09-14T21:26:47.526Z,26.23
2022-09-14T21:29:21.054Z,26.17
2022-09-14T21:31:48.976Z,26.17
2022-09-14T21:34:16.426Z,26.17
2022-09-14T21:36:46.492Z,26.13
2022-09-14T21:39:17.262Z,26.12
2022-09-14T21:41:45.341Z,26.06
2022-09-14T21:44:13.998Z,26.07
2022-09-14T21:46:42.036Z,26.05
2022-09-14T21:49:14.323Z,26.08
2022-09-14T21:51:41.754Z,26.08
2022-09-14T21:54:10.901Z,26.07
2022-09-14T21:56:39.658Z,26.09
2022-09-14T21:59:13.102Z,26.12
2022-09-14T22:01:41.873Z,26.15
2022-09-14T22:04:15.757Z,26.15
2022-09-14T22:06:45.275Z,26.16
2022-09-14T22:09:14.146Z,26.20
2022-09-14T22:11:41.193Z,26.20
2022-09-14T22:14:18.401Z,26.19
2022-09-14T22:16:46.551Z,26.19
2022-09-14T22:19:25.718Z,26.20
2022-09-14T22:21:53.456Z,26.18
2022-09-14T22:24:23.792Z,26.18
2022-09-14T22:26:50.914Z,26.16
2022-09-14T22:29:19.195Z,26.17
2022-09-14T22:31:46.961Z,26.17
2022-09-14T22:34:14.596Z,26.18
2022-09-14T22:36:42.550Z,26.19
2022-09-14T22:39:10.949Z,26.16
2022-09-14T22:41:38.973Z,26.13
2022-09-14T22:44:07.380Z,26.10
2022-09-14T22:46:35.223Z,26.09
2022-09-14T22:49:02.749Z,26.08
2022-09-14T22:51:30.529Z,26.05
2022-09-14T22:53:58.064Z,26.04
2022-09-14T22:56:29.706Z,26.02
2022-09-14T22:58:57.170Z,26.01
2022-09-14T23:01:30.027Z,25.96
2022-09-14T23:04:00.609Z,25.95
2022-09-14T23:06:33.877Z,25.91
2022-09-14T23:09:01.601Z,25.92
2022-09-14T23:11:29.054Z,25.89
2022-09-14T23:13:57.978Z,25.88
2022-09-14T23:16:27.006Z,25.85
2022-09-14T23:18:57.018Z,25.83
2022-09-14T23:21:25.013Z,25.79
2022-09-14T23:23:54.578Z,25.74
2022-09-14T23:26:23.218Z,25.71
2022-09-14T23:28:59.925Z,25.65
2022-09-14T23:31:29.122Z,25.61
2022-09-14T23:33:58.790Z,25.59
2022-09-14T23:36:26.903Z,25.61
2022-09-14T23:38:54.230Z,25.64
2022-09-14T23:41:23.773Z,25.65
2022-09-14T23:43:51.930Z,25.61
2022-09-14T23:46:19.483Z,25.58
2022-09-14T23:48:46.760Z,25.52
2022-09-14T23:51:14.763Z,25.43
2022-09-14T23:53:43.326Z,25.34
2022-09-14T23:56:11.627Z,25.30
2022-09-14T23:58:41.517Z,25.26
